Detall de PIREP

Printer-friendly versionPDF version

[2013/03/28 16:07:00]
Flight IATA:CT1004
Pilot Number:012
Company ICAO:CAT
Aircraft Type:C750/F
PAX:4
Departing Airport: EGLC
Destination Airport: LEBL
Alternate Airport:LEPA
Online: VATSIM
Route:LYD UM189 DRAKE UL151 SITET UN859 PUMAL
Flight Level:F490
No Slew and time accel
No pause
Crash detect
Detect pilot in Cockpit between each 30 and 45 minutes
16:07 Zero fuel Weight: 22699 Lbs, Fuel Weight: 4724 Lbs
16:07 VATSIM:EGLC 281550Z 02009KT 340V070 9999 BKN040 04/M07 Q1013
16:07 VATSIM:LEBL 281600Z 22017KT 9999 FEW020 17/13 Q1005 NOSIG
16:07 VOICE CATALONIAN / EASTER CHARTER
16:08 Parking Brakes off
16:09 Take-off
16:09 Take off Weight: 27374 Lbs
16:09 Wind: 028º @ 007 Knots Heading: 090º
16:09 POS N51º 30´ 17´´ E000º 03´ 47´´
16:10 Gear Up: 161 Knots
16:10 Flaps:3 at 161 Knots
16:10 Flaps:2 at 181 Knots
16:10 Flaps:0 at 201 Knots
16:25 Wind:292º@036 Knots Heading: 217º Ground Speed: 489 Knots Altitude 45039 ft
16:27 TOC
16:27 Fuel Weight: 4042 Lb
16:40 Wind:288º@045 Knots Heading: 169º Ground Speed: 529 Knots Altitude 48868 ft
16:55 Wind:284º@042 Knots Heading: 159º Ground Speed: 534 Knots Altitude 48792 ft
17:10 Wind:278º@040 Knots Heading: 177º Ground Speed: 518 Knots Altitude 48792 ft
17:11 TOD
17:11 Fuel Weight: 3344 Lb
17:17 Gear Down: 278 Knots
17:17 Gear Up: 258 Knots
17:25 Wind:277º@022 Knots Heading: 149º Ground Speed: 387 Knots Altitude 14229 ft
17:36 Flaps:2 at 191 Knots
17:36 Flaps:3 at 179 Knots
17:37 Gear Down: 172 Knots
17:37 Flaps:4 at 143 Knots
17:37 Flaps:5 at 135 Knots
17:40 Wind:232º@018 Knots Heading: 242º Ground Speed: 109 Knots Altitude 866 ft
17:41 TouchDown:Rate -494 ft/min Speed: 117 Knots
17:41 Flaps:3 at 77 Knots
17:41 Flaps:0 at 77 Knots
17:41 VATSIM:LEBL 281700Z 22012KT 9999 FEW02017/13 Q1005 NOSIG
17:41 Land
17:41 Wind:232º@019 Knots
17:41 Heading: 244º
17:41 Flight Duration: 01:31
17:41 Landing Weight: 25757 Lbs
17:41 POS N41º 18´ 03´´ E002º 05´ 26´´
17:44 Parking brakes on
17:44 Block to Block Duration: 01:36
17:44 Final Fuel: 3035 Lbls
17:44 Spent Fuel: 1688 Lbls
17:44 Flight Length: 666 NM
17:44 TOD Land Length: 165 NM

Exportar CSV

Powered by Drupal - Modified by Danger4k